Time;durP1;ratioP1;P1;durP2;ratioP2;P2;SDS_P1;SDS_P2;PMS_P1;PMS_P2;Temp;Humidity;BMP_temperature;BMP_pressure;BME280_temperature;BME280_humidity;BME280_pressure;Samples;Min_cycle;Max_cycle;Signal;HPM_P1;HPM_P2
2023/02/01 00:00:58;;;;;;;1.60;1.20;;;6.30;98.20;;;;;;5050559;28;20487;-73
2023/02/01 00:03:26;;;;;;;1.60;1.30;;;6.30;98.20;;;;;;5057367;28;20488;-73
2023/02/01 00:05:57;;;;;;;1.70;1.50;;;6.30;98.20;;;;;;5065563;28;20540;-73
2023/02/01 00:08:24;;;;;;;1.67;1.30;;;6.30;98.20;;;;;;5060340;28;20485;-74
2023/02/01 00:10:59;;;;;;;1.70;1.40;;;6.30;98.20;;;;;;5062438;28;20480;-74
2023/02/01 00:13:28;;;;;;;1.70;1.40;;;6.30;98.20;;;;;;5064879;28;20465;-73
2023/02/01 00:15:55;;;;;;;1.63;1.30;;;6.40;98.20;;;;;;5064585;28;20463;-74
2023/02/01 00:18:24;;;;;;;1.60;1.30;;;6.40;98.20;;;;;;5061842;28;20477;-74
2023/02/01 00:20:50;;;;;;;1.70;1.40;;;6.40;98.20;;;;;;5063850;28;20493;-74
2023/02/01 00:23:17;;;;;;;1.60;1.30;;;6.40;98.20;;;;;;5069515;28;20457;-74
2023/02/01 00:25:44;;;;;;;1.63;1.30;;;6.40;98.20;;;;;;5058897;28;20465;-74
2023/02/01 00:28:12;;;;;;;1.60;1.20;;;6.40;98.20;;;;;;5065344;28;21009;-74
2023/02/01 00:30:39;;;;;;;1.60;1.30;;;6.40;98.20;;;;;;5066333;28;20751;-73
2023/02/01 00:33:06;;;;;;;1.67;1.30;;;6.40;98.20;;;;;;5067013;28;20453;-74
2023/02/01 00:35:36;;;;;;;1.63;1.30;;;6.40;98.20;;;;;;5068103;28;20493;-74
2023/02/01 00:38:03;;;;;;;1.67;1.40;;;6.40;98.20;;;;;;5060242;28;20478;-74
2023/02/01 00:40:30;;;;;;;1.67;1.30;;;6.40;98.20;;;;;;5060692;28;20458;-73
2023/02/01 00:42:57;;;;;;;1.70;1.40;;;6.40;98.20;;;;;;5066158;28;20500;-73
2023/02/01 00:45:24;;;;;;;1.70;1.30;;;6.40;98.20;;;;;;5062626;28;20453;-74
2023/02/01 00:47:51;;;;;;;1.70;1.43;;;6.40;98.20;;;;;;5063739;28;20546;-74
2023/02/01 00:50:18;;;;;;;1.60;1.20;;;6.30;98.20;;;;;;5067408;28;20760;-74
2023/02/01 00:52:46;;;;;;;1.60;1.20;;;6.30;98.20;;;;;;5054432;28;20553;-74
2023/02/01 00:55:13;;;;;;;1.70;1.40;;;6.20;98.20;;;;;;5060081;28;20462;-74
2023/02/01 00:57:40;;;;;;;1.60;1.30;;;6.20;98.20;;;;;;5052114;28;20734;-74
2023/02/01 01:00:08;;;;;;;1.60;1.30;;;6.10;98.20;;;;;;5056559;28;20519;-74
2023/02/01 01:02:35;;;;;;;1.70;1.40;;;6.10;98.20;;;;;;5060761;28;20573;-73
2023/02/01 01:05:02;;;;;;;1.60;1.30;;;6.00;98.20;;;;;;5062921;28;20485;-74
2023/02/01 01:07:29;;;;;;;1.60;1.30;;;6.00;98.20;;;;;;5053854;28;20489;-74
2023/02/01 01:10:00;;;;;;;1.60;1.30;;;5.90;98.20;;;;;;5064030;28;20471;-73
2023/02/01 01:12:26;;;;;;;1.67;1.30;;;5.90;98.20;;;;;;5060300;28;20516;-74
2023/02/01 01:14:53;;;;;;;1.60;1.30;;;5.80;98.20;;;;;;5066452;28;20544;-74
2023/02/01 01:17:20;;;;;;;1.60;1.30;;;5.80;98.20;;;;;;5061118;28;20455;-74
2023/02/01 01:19:47;;;;;;;1.67;1.30;;;5.80;98.20;;;;;;5063193;28;20870;-74
2023/02/01 01:22:14;;;;;;;1.60;1.30;;;5.80;98.20;;;;;;5060686;28;20485;-73
2023/02/01 01:24:41;;;;;;;1.70;1.40;;;5.70;98.20;;;;;;5060406;28;20453;-74
2023/02/01 01:27:10;;;;;;;1.70;1.50;;;5.70;98.20;;;;;;5063446;28;20545;-74
2023/02/01 01:29:37;;;;;;;1.60;1.30;;;5.70;98.20;;;;;;5050416;28;20450;-74
2023/02/01 01:32:05;;;;;;;1.60;1.27;;;5.70;98.20;;;;;;5059012;28;20528;-74
2023/02/01 01:34:31;;;;;;;1.60;1.30;;;5.70;98.20;;;;;;5053333;28;20454;-74
2023/02/01 01:36:58;;;;;;;1.60;1.30;;;5.70;98.20;;;;;;5056109;28;20590;-74
2023/02/01 01:39:25;;;;;;;1.60;1.20;;;5.70;98.20;;;;;;5055502;28;20481;-74
2023/02/01 01:41:52;;;;;;;1.70;1.50;;;5.60;98.20;;;;;;5065989;28;20477;-74
2023/02/01 01:44:56;;;;;;;1.60;1.30;;;5.60;98.20;;;;;;5059965;28;20849;-74
2023/02/01 01:47:26;;;;;;;1.63;1.30;;;5.60;98.20;;;;;;5060541;28;20574;-74
2023/02/01 01:49:53;;;;;;;1.70;1.40;;;5.60;98.20;;;;;;5066360;28;20953;-73
2023/02/01 01:52:20;;;;;;;1.63;1.40;;;5.60;98.20;;;;;;5067575;28;20469;-74
2023/02/01 01:54:52;;;;;;;1.60;1.30;;;5.50;98.20;;;;;;5065790;28;20970;-72
2023/02/01 01:57:23;;;;;;;1.70;1.30;;;5.50;98.20;;;;;;5063280;28;20471;-73
2023/02/01 01:59:55;;;;;;;1.60;1.20;;;5.50;98.20;;;;;;5065327;28;20531;-74
2023/02/01 02:02:22;;;;;;;1.67;1.30;;;5.50;98.20;;;;;;5059601;28;20542;-73
2023/02/01 02:04:50;;;;;;;1.70;1.40;;;5.50;98.20;;;;;;5058290;28;20485;-75
2023/02/01 02:07:21;;;;;;;1.60;1.30;;;5.50;98.20;;;;;;5054315;28;20454;-74
2023/02/01 02:09:48;;;;;;;1.63;1.30;;;5.50;98.20;;;;;;5063235;28;21230;-73
2023/02/01 02:12:15;;;;;;;3.20;3.00;;;5.50;98.20;;;;;;5048543;28;20561;-72
2023/02/01 02:14:42;;;;;;;2.23;2.03;;;5.50;98.20;;;;;;5064104;28;20454;-72
2023/02/01 02:17:26;;;;;;;1.60;1.30;;;5.50;98.20;;;;;;5055705;28;20462;-75
2023/02/01 02:20:26;;;;;;;1.70;1.40;;;5.50;98.20;;;;;;5058228;28;20512;-75
2023/02/01 02:23:50;;;;;;;1.63;1.30;;;5.50;98.20;;;;;;5066090;28;20906;-72
2023/02/01 02:26:54;;;;;;;1.60;1.30;;;5.50;98.20;;;;;;4984537;28;20876;-74
2023/02/01 02:30:01;;;;;;;1.60;1.30;;;5.50;98.20;;;;;;4979110;28;20461;-74
2023/02/01 02:32:53;;;;;;;1.63;1.40;;;5.50;98.20;;;;;;5063055;28;20607;-74
2023/02/01 02:35:31;;;;;;;1.63;1.33;;;5.50;98.20;;;;;;5035855;28;20992;-73
2023/02/01 02:38:12;;;;;;;1.60;1.30;;;5.50;98.20;;;;;;5055599;28;20832;-74
2023/02/01 02:40:47;;;;;;;1.60;1.30;;;5.50;98.20;;;;;;5066236;28;20488;-74
2023/02/01 02:49:05;;;;;;;3.73;3.53;;;5.50;98.20;;;;;;5055220;28;20445;-74
2023/02/01 03:05:37;;;;;;;1.63;1.33;;;5.50;98.20;;;;;;5063417;28;20471;-74
2023/02/01 03:08:10;;;;;;;1.70;1.50;;;5.50;98.20;;;;;;5053838;28;20493;-74
2023/02/01 03:10:44;;;;;;;1.70;1.40;;;5.50;98.20;;;;;;5062557;28;20477;-74
2023/02/01 03:13:19;;;;;;;1.60;1.30;;;5.50;98.20;;;;;;5051368;28;20469;-74
2023/02/01 03:15:54;;;;;;;1.70;1.47;;;5.50;98.20;;;;;;5058195;28;20464;-74
2023/02/01 03:18:29;;;;;;;1.60;1.30;;;5.50;98.20;;;;;;5060146;28;20473;-75
2023/02/01 03:20:58;;;;;;;1.60;1.30;;;5.40;98.20;;;;;;5055301;28;20521;-74
2023/02/01 03:23:31;;;;;;;1.60;1.30;;;5.40;98.20;;;;;;5060931;28;20545;-75
2023/02/01 03:26:00;;;;;;;1.70;1.40;;;5.40;98.20;;;;;;5048052;28;20547;-74
2023/02/01 03:28:31;;;;;;;1.60;1.30;;;5.30;98.20;;;;;;5060227;28;20453;-74
2023/02/01 03:30:59;;;;;;;1.60;1.30;;;5.30;98.20;;;;;;5068922;28;20542;-74
2023/02/01 03:33:29;;;;;;;1.60;1.30;;;5.30;98.20;;;;;;5070527;28;20568;-75
2023/02/01 03:36:04;;;;;;;1.60;1.30;;;5.30;98.20;;;;;;5079496;28;20454;-74
2023/02/01 03:38:36;;;;;;;1.60;1.33;;;5.30;98.20;;;;;;5075124;28;20488;-74
2023/02/01 03:41:15;;;;;;;1.67;1.30;;;5.30;98.20;;;;;;5069317;28;20994;-74
2023/02/01 03:43:51;;;;;;;1.70;1.30;;;5.30;98.20;;;;;;5070001;28;20465;-75
2023/02/01 03:46:24;;;;;;;1.63;1.30;;;5.30;98.20;;;;;;5069106;28;20485;-75
2023/02/01 03:48:53;;;;;;;1.60;1.30;;;5.40;98.20;;;;;;5069175;28;20457;-74
2023/02/01 03:51:22;;;;;;;1.60;1.30;;;5.40;98.20;;;;;;5069705;28;20571;-74
2023/02/01 03:53:52;;;;;;;1.70;1.30;;;5.40;98.20;;;;;;5069615;28;21199;-74
2023/02/01 03:56:22;;;;;;;1.70;1.30;;;5.40;98.20;;;;;;5061812;28;20466;-74
2023/02/01 03:58:58;;;;;;;1.70;1.40;;;5.50;98.20;;;;;;5066583;28;20481;-75
2023/02/01 04:01:26;;;;;;;1.60;1.30;;;5.50;98.20;;;;;;5069157;28;21001;-75
2023/02/01 04:03:53;;;;;;;1.67;1.30;;;5.50;98.20;;;;;;5069319;28;20818;-75
2023/02/01 04:06:20;;;;;;;1.63;1.30;;;5.60;98.20;;;;;;5066957;28;20465;-72
2023/02/01 04:08:47;;;;;;;1.67;1.40;;;5.60;98.20;;;;;;5068811;28;20449;-74
2023/02/01 04:11:15;;;;;;;1.70;1.30;;;5.60;98.20;;;;;;5062059;28;20488;-74
2023/02/01 04:13:42;;;;;;;1.67;1.30;;;5.60;98.20;;;;;;5069849;28;20616;-74
2023/02/01 04:16:09;;;;;;;1.97;1.77;;;5.70;98.20;;;;;;5067650;28;20514;-74
2023/02/01 04:18:36;;;;;;;1.60;1.30;;;5.70;98.20;;;;;;5064281;28;20551;-73
2023/02/01 04:21:03;;;;;;;1.60;1.30;;;5.70;98.20;;;;;;5067885;28;20485;-74
2023/02/01 04:23:31;;;;;;;1.63;1.30;;;5.80;98.20;;;;;;5069813;28;20475;-76
2023/02/01 04:26:01;;;;;;;1.60;1.30;;;5.80;98.20;;;;;;5069476;28;20843;-76
2023/02/01 04:28:29;;;;;;;1.63;1.30;;;5.80;98.20;;;;;;5067582;28;20461;-77
2023/02/01 04:30:57;;;;;;;1.60;1.30;;;5.80;98.20;;;;;;5058304;28;20858;-77
2023/02/01 04:33:24;;;;;;;1.63;1.30;;;5.80;98.20;;;;;;5065611;28;20546;-77
2023/02/01 04:35:51;;;;;;;1.70;1.40;;;5.80;98.20;;;;;;5060358;28;20848;-75
2023/02/01 04:38:18;;;;;;;1.60;1.30;;;5.80;98.20;;;;;;5057141;28;20899;-75
2023/02/01 04:40:47;;;;;;;1.60;1.30;;;5.80;98.20;;;;;;5057806;28;20981;-73
2023/02/01 04:43:14;;;;;;;1.63;1.30;;;5.70;98.20;;;;;;5064132;28;20472;-75
2023/02/01 04:45:42;;;;;;;1.70;1.50;;;5.70;98.20;;;;;;5061036;28;20548;-74
2023/02/01 04:48:09;;;;;;;1.67;1.30;;;5.70;98.20;;;;;;5059919;28;20881;-74
2023/02/01 04:50:36;;;;;;;1.63;1.30;;;5.60;98.20;;;;;;5066902;28;20820;-75
2023/02/01 04:53:03;;;;;;;1.63;1.33;;;5.60;98.20;;;;;;5055758;28;22070;-75
2023/02/01 04:55:30;;;;;;;1.70;1.40;;;5.60;98.20;;;;;;5059048;28;21155;-73
2023/02/01 04:57:58;;;;;;;1.70;1.40;;;5.60;98.20;;;;;;5050997;28;20504;-74
2023/02/01 05:00:25;;;;;;;1.60;1.30;;;5.50;98.20;;;;;;5052151;28;20617;-76
2023/02/01 05:02:54;;;;;;;1.60;1.23;;;5.50;98.20;;;;;;5059299;28;20883;-73
2023/02/01 05:05:21;;;;;;;1.70;1.50;;;5.50;98.20;;;;;;5061750;28;20497;-74
2023/02/01 05:07:48;;;;;;;1.63;1.30;;;5.50;98.20;;;;;;5064568;28;20507;-75
2023/02/01 05:10:15;;;;;;;1.60;1.30;;;5.40;98.20;;;;;;5061592;28;20479;-76
2023/02/01 05:15:28;;;;;;;1.70;1.47;;;5.40;98.20;;;;;;5064115;28;20588;-74
2023/02/01 05:17:57;;;;;;;1.70;1.40;;;5.40;98.20;;;;;;5059150;28;20494;-74
2023/02/01 05:20:24;;;;;;;1.60;1.30;;;5.40;98.20;;;;;;5057502;28;20489;-73
2023/02/01 05:22:51;;;;;;;1.70;1.40;;;5.30;98.20;;;;;;5056610;28;20461;-74
2023/02/01 05:25:18;;;;;;;1.67;1.40;;;5.30;98.20;;;;;;5061143;28;20497;-74
2023/02/01 05:27:46;;;;;;;1.70;1.47;;;5.30;98.20;;;;;;5062864;28;20493;-74
2023/02/01 05:30:14;;;;;;;1.63;1.30;;;5.30;98.20;;;;;;5060676;28;20458;-74
2023/02/01 05:32:41;;;;;;;1.60;1.40;;;5.20;98.20;;;;;;5055901;28;20492;-74
2023/02/01 05:35:10;;;;;;;1.70;1.50;;;5.20;98.20;;;;;;5063160;28;20489;-74
2023/02/01 05:37:37;;;;;;;1.60;1.30;;;5.20;98.20;;;;;;5059383;28;20463;-75
2023/02/01 05:40:05;;;;;;;1.60;1.30;;;5.20;98.20;;;;;;5058592;28;20539;-72
2023/02/01 05:42:33;;;;;;;1.60;1.40;;;5.20;98.20;;;;;;5060903;28;21050;-74
2023/02/01 05:45:00;;;;;;;1.63;1.30;;;5.20;98.20;;;;;;5052597;28;20486;-74
2023/02/01 05:47:27;;;;;;;1.63;1.30;;;5.20;98.20;;;;;;5060352;28;20965;-73
2023/02/01 05:49:54;;;;;;;2.17;1.97;;;5.20;98.20;;;;;;5064013;28;20839;-75
2023/02/01 05:52:22;;;;;;;1.60;1.30;;;5.20;98.20;;;;;;5067041;28;20488;-74
2023/02/01 05:54:49;;;;;;;1.70;1.40;;;5.10;98.20;;;;;;5059433;28;20458;-74
2023/02/01 05:57:17;;;;;;;1.63;1.30;;;5.10;98.20;;;;;;5063520;28;20565;-74
2023/02/01 05:59:45;;;;;;;1.63;1.40;;;5.10;98.20;;;;;;5059531;28;20482;-73
2023/02/01 06:02:13;;;;;;;1.63;1.40;;;5.10;98.20;;;;;;5048546;28;20491;-73
2023/02/01 06:04:40;;;;;;;1.63;1.40;;;5.10;98.20;;;;;;5055312;28;20467;-73
2023/02/01 06:07:08;;;;;;;1.60;1.30;;;5.10;98.20;;;;;;5055385;28;20473;-73
2023/02/01 06:09:37;;;;;;;1.70;1.50;;;5.10;98.20;;;;;;5054894;28;20545;-73
2023/02/01 06:12:07;;;;;;;1.60;1.30;;;5.10;98.20;;;;;;5053646;28;20514;-73
2023/02/01 06:14:34;;;;;;;1.60;1.40;;;5.00;98.20;;;;;;5052647;28;20492;-73
2023/02/01 06:17:02;;;;;;;1.60;1.30;;;5.00;98.20;;;;;;5040899;28;20567;-73
2023/02/01 06:19:36;;;;;;;1.67;1.40;;;5.00;98.20;;;;;;5059511;28;20491;-73
2023/02/01 06:22:06;;;;;;;1.70;1.43;;;5.00;98.20;;;;;;5044825;28;20910;-74
2023/02/01 06:24:40;;;;;;;1.60;1.30;;;5.00;98.20;;;;;;5053211;28;20457;-74
2023/02/01 06:29:48;;;;;;;1.70;1.30;;;5.00;98.20;;;;;;5056204;28;20454;-73
2023/02/01 06:32:53;;;;;;;1.60;1.30;;;5.10;98.20;;;;;;5046612;28;21178;-75
2023/02/01 06:35:22;;;;;;;1.67;1.30;;;5.10;98.20;;;;;;5004834;28;20460;-74
2023/02/01 06:37:53;;;;;;;1.63;1.30;;;5.20;98.20;;;;;;4977526;28;20543;-74
2023/02/01 06:40:27;;;;;;;1.60;1.30;;;5.20;98.20;;;;;;5020537;28;20493;-75
2023/02/01 06:42:58;;;;;;;1.60;1.30;;;5.20;98.20;;;;;;5052950;28;20542;-74
2023/02/01 06:45:25;;;;;;;1.60;1.37;;;5.30;98.20;;;;;;5059078;28;20971;-73
2023/02/01 06:47:53;;;;;;;1.70;1.40;;;5.30;98.20;;;;;;5048399;28;20489;-74
2023/02/01 06:50:27;;;;;;;1.67;1.30;;;5.40;98.20;;;;;;5060945;28;20462;-73
2023/02/01 06:53:27;;;;;;;1.70;1.40;;;5.40;98.20;;;;;;5037871;28;20489;-74
2023/02/01 06:56:17;;;;;;;1.60;1.30;;;5.40;98.20;;;;;;5035872;28;20458;-74
2023/02/01 06:59:19;;;;;;;1.70;1.43;;;5.40;98.20;;;;;;5053916;28;20468;-74
2023/02/01 07:01:54;;;;;;;1.70;1.50;;;5.40;98.20;;;;;;5022164;28;21064;-74
2023/02/01 07:04:52;;;;;;;1.63;1.30;;;5.50;98.20;;;;;;5072875;28;20524;-74
2023/02/01 07:07:23;;;;;;;1.67;1.40;;;5.50;98.20;;;;;;5043807;28;20526;-73
2023/02/01 07:09:50;;;;;;;1.67;1.37;;;5.50;98.20;;;;;;5064062;28;20449;-76
2023/02/01 07:12:20;;;;;;;4.37;3.50;;;5.50;98.20;;;;;;5048898;28;20948;-73
2023/02/01 07:14:47;;;;;;;1.63;1.40;;;5.60;98.20;;;;;;5063384;28;20538;-75
2023/02/01 07:17:14;;;;;;;1.70;1.40;;;5.60;98.20;;;;;;5051446;28;20474;-75
2023/02/01 07:19:41;;;;;;;1.70;1.30;;;5.60;98.20;;;;;;5063536;28;20558;-74
2023/02/01 07:22:25;;;;;;;1.60;1.30;;;5.60;98.20;;;;;;5055842;28;20540;-73
2023/02/01 07:24:52;;;;;;;1.60;1.30;;;5.60;98.20;;;;;;5069443;28;20775;-73
2023/02/01 07:27:24;;;;;;;1.60;1.30;;;5.60;98.20;;;;;;5055126;28;21182;-74
2023/02/01 07:29:51;;;;;;;1.63;1.30;;;5.60;98.20;;;;;;5066007;28;20460;-75
2023/02/01 07:32:20;;;;;;;1.60;1.30;;;5.70;98.20;;;;;;5057616;28;21143;-75
2023/02/01 07:34:47;;;;;;;1.60;1.30;;;5.70;98.20;;;;;;5060162;28;20847;-74
2023/02/01 07:37:14;;;;;;;1.67;1.30;;;5.70;98.20;;;;;;5048438;28;20486;-74
2023/02/01 07:39:42;;;;;;;1.67;1.40;;;5.70;98.20;;;;;;5065560;28;20464;-73
2023/02/01 07:42:09;;;;;;;1.60;1.30;;;5.70;98.20;;;;;;5047726;28;20489;-72
2023/02/01 07:44:38;;;;;;;1.60;1.30;;;5.70;98.20;;;;;;5058529;28;20842;-74
2023/02/01 07:47:05;;;;;;;1.67;1.30;;;5.70;98.20;;;;;;5049077;28;20656;-73
2023/02/01 07:49:32;;;;;;;1.63;1.30;;;5.80;98.20;;;;;;5061745;28;20461;-75
2023/02/01 07:52:00;;;;;;;1.70;1.40;;;5.70;98.20;;;;;;5054729;28;20886;-73
2023/02/01 07:54:27;;;;;;;1.60;1.30;;;5.80;98.20;;;;;;5057017;28;20458;-73
2023/02/01 07:56:54;;;;;;;1.60;1.30;;;5.80;98.20;;;;;;5045342;28;20575;-73
2023/02/01 07:59:21;;;;;;;1.63;1.30;;;5.80;98.20;;;;;;5050136;28;20482;-74
2023/02/01 08:01:49;;;;;;;1.60;1.30;;;5.80;98.20;;;;;;5039249;28;21058;-73
2023/02/01 08:04:16;;;;;;;1.60;1.30;;;5.80;98.20;;;;;;5044031;28;20469;-74
2023/02/01 08:06:43;;;;;;;1.70;1.40;;;5.80;98.20;;;;;;5050939;28;20494;-73
2023/02/01 08:09:12;;;;;;;1.60;1.37;;;5.80;98.20;;;;;;5064871;28;20484;-74
2023/02/01 08:11:39;;;;;;;1.70;1.30;;;5.80;98.20;;;;;;5049805;28;20494;-75
2023/02/01 08:14:06;;;;;;;1.60;1.30;;;5.80;98.20;;;;;;5061558;28;20467;-72
2023/02/01 08:16:37;;;;;;;1.70;1.60;;;5.80;98.20;;;;;;5049168;28;20481;-73
2023/02/01 08:19:05;;;;;;;1.60;1.20;;;5.80;98.20;;;;;;5055978;28;20469;-73
2023/02/01 08:21:37;;;;;;;1.70;1.50;;;5.80;98.20;;;;;;5052697;28;20541;-74
2023/02/01 08:24:05;;;;;;;1.63;1.30;;;5.80;98.20;;;;;;5054566;28;20736;-74
2023/02/01 08:26:33;;;;;;;1.60;1.30;;;5.80;98.20;;;;;;5057220;28;20517;-75
2023/02/01 08:29:02;;;;;;;1.60;1.30;;;5.90;98.20;;;;;;5057745;28;20464;-74
2023/02/01 08:31:30;;;;;;;1.70;1.30;;;5.90;98.20;;;;;;5043713;28;20483;-74
2023/02/01 08:33:59;;;;;;;1.70;1.40;;;5.90;98.20;;;;;;5045331;28;20469;-73
2023/02/01 08:36:29;;;;;;;1.60;1.30;;;5.90;98.20;;;;;;5051494;28;20553;-73
2023/02/01 08:38:57;;;;;;;1.63;1.30;;;5.90;98.20;;;;;;5057580;28;20471;-74
2023/02/01 08:41:27;;;;;;;1.60;1.20;;;5.90;98.20;;;;;;5043583;28;20491;-74
2023/02/01 08:43:55;;;;;;;1.60;1.30;;;6.00;98.20;;;;;;5061870;28;20918;-73
2023/02/01 08:46:24;;;;;;;1.60;1.30;;;6.00;98.20;;;;;;5054500;28;20473;-75
2023/02/01 08:48:51;;;;;;;1.70;1.40;;;6.00;98.20;;;;;;5056240;28;20473;-73
2023/02/01 08:51:20;;;;;;;1.60;1.20;;;6.10;98.20;;;;;;5052957;28;20480;-74
2023/02/01 08:53:49;;;;;;;1.63;1.30;;;6.10;98.20;;;;;;5054076;28;20654;-73
2023/02/01 08:56:18;;;;;;;1.63;1.30;;;6.10;98.20;;;;;;5048998;28;20529;-73
2023/02/01 08:58:47;;;;;;;1.60;1.30;;;6.10;98.20;;;;;;5052748;28;21112;-72
2023/02/01 09:01:16;;;;;;;1.60;1.20;;;6.20;98.20;;;;;;5045370;28;20484;-73
2023/02/01 09:03:44;;;;;;;1.60;1.30;;;6.20;98.20;;;;;;5059779;28;20462;-73
2023/02/01 09:06:14;;;;;;;1.70;1.40;;;6.30;98.20;;;;;;5048396;28;20485;-73
2023/02/01 09:08:41;;;;;;;1.60;1.30;;;6.30;98.20;;;;;;5052487;28;20512;-74
2023/02/01 09:11:14;;;;;;;1.63;1.20;;;6.30;98.20;;;;;;5044863;28;20540;-75
2023/02/01 09:13:41;;;;;;;1.67;1.20;;;6.40;98.20;;;;;;5057646;28;20466;-74
2023/02/01 09:16:09;;;;;;;1.60;1.30;;;6.40;98.20;;;;;;5049494;28;20487;-74
2023/02/01 09:18:37;;;;;;;1.60;1.30;;;6.40;98.20;;;;;;5061760;28;20453;-73
2023/02/01 09:21:06;;;;;;;1.70;1.40;;;6.50;98.20;;;;;;5051955;28;20800;-74
2023/02/01 09:23:35;;;;;;;1.70;1.40;;;6.50;98.20;;;;;;5059227;28;20552;-74
2023/02/01 09:26:03;;;;;;;1.67;1.30;;;6.40;98.20;;;;;;5051961;28;20465;-73
2023/02/01 09:28:31;;;;;;;1.63;1.40;;;6.40;98.20;;;;;;5055868;28;20508;-73
2023/02/01 09:30:59;;;;;;;1.60;1.20;;;6.40;98.20;;;;;;5054281;28;20849;-74
2023/02/01 09:33:28;;;;;;;1.63;1.20;;;6.40;98.20;;;;;;5064074;28;20938;-73
2023/02/01 09:35:58;;;;;;;1.60;1.30;;;6.40;98.20;;;;;;5043845;28;20549;-74
2023/02/01 09:38:29;;;;;;;1.60;1.30;;;6.40;98.20;;;;;;5057871;28;20836;-74
2023/02/01 09:40:57;;;;;;;1.60;1.20;;;6.40;98.20;;;;;;5049849;28;20489;-73
2023/02/01 09:43:39;;;;;;;1.60;1.33;;;6.50;98.20;;;;;;5055814;28;20524;-73
2023/02/01 09:46:25;;;;;;;1.60;1.20;;;6.50;98.20;;;;;;5039430;28;20488;-73
2023/02/01 09:48:56;;;;;;;1.60;1.33;;;6.50;98.20;;;;;;5063505;28;20464;-73
2023/02/01 09:51:26;;;;;;;1.60;1.30;;;6.60;98.20;;;;;;5046103;28;20507;-73
2023/02/01 09:54:02;;;;;;;1.60;1.27;;;6.60;98.20;;;;;;5059917;28;20943;-73
2023/02/01 09:56:36;;;;;;;1.60;1.23;;;6.60;98.20;;;;;;5037766;28;20486;-72
2023/02/01 09:59:11;;;;;;;1.67;1.40;;;6.60;98.20;;;;;;5049311;28;20490;-73
2023/02/01 10:01:39;;;;;;;1.63;1.30;;;6.60;98.20;;;;;;5049147;28;20473;-73
2023/02/01 10:04:09;;;;;;;1.60;1.20;;;6.60;98.20;;;;;;5063017;28;20461;-73
2023/02/01 10:06:47;;;;;;;1.60;1.20;;;6.60;98.20;;;;;;5045347;28;20496;-73
2023/02/01 10:09:31;;;;;;;1.60;1.30;;;6.60;98.20;;;;;;5051833;28;20470;-73
2023/02/01 10:12:34;;;;;;;1.60;1.20;;;6.70;98.20;;;;;;5050894;28;20990;-73
2023/02/01 10:15:25;;;;;;;1.67;1.30;;;6.70;98.20;;;;;;5057950;28;20837;-73
2023/02/01 10:18:03;;;;;;;1.60;1.20;;;6.80;98.20;;;;;;5045771;28;20490;-73
2023/02/01 10:20:39;;;;;;;1.60;1.20;;;6.80;98.20;;;;;;5058116;28;20465;-74
2023/02/01 10:23:14;;;;;;;1.60;1.20;;;6.90;98.20;;;;;;5046366;28;20500;-73
2023/02/01 10:25:50;;;;;;;1.60;1.20;;;7.00;98.20;;;;;;5052752;28;20458;-73
2023/02/01 10:28:21;;;;;;;2.03;1.30;;;7.10;98.20;;;;;;5031672;28;20490;-73
2023/02/01 10:30:53;;;;;;;1.60;1.20;;;7.20;98.20;;;;;;5046320;28;21027;-73
2023/02/01 10:33:27;;;;;;;1.90;1.70;;;7.40;98.20;;;;;;5045755;28;20549;-73
2023/02/01 10:36:03;;;;;;;1.67;1.30;;;7.50;98.20;;;;;;5043768;28;20453;-72
2023/02/01 10:38:34;;;;;;;1.60;1.20;;;7.60;98.20;;;;;;5058937;28;20831;-73
2023/02/01 10:41:05;;;;;;;1.60;1.20;;;7.70;98.20;;;;;;5046227;28;20570;-73
2023/02/01 10:43:33;;;;;;;1.60;1.20;;;7.70;98.20;;;;;;5053927;28;20521;-73
2023/02/01 10:46:02;;;;;;;1.60;1.13;;;7.70;98.20;;;;;;5046276;28;20873;-73
2023/02/01 10:48:31;;;;;;;1.60;1.20;;;7.70;98.20;;;;;;5049789;28;20469;-73
2023/02/01 10:51:01;;;;;;;1.60;1.20;;;7.80;98.20;;;;;;5040456;28;20473;-73
2023/02/01 10:53:35;;;;;;;1.70;1.30;;;7.80;98.20;;;;;;5054731;28;20462;-73
2023/02/01 10:56:08;;;;;;;1.67;1.20;;;7.70;98.20;;;;;;5045745;28;20489;-72
2023/02/01 10:58:37;;;;;;;1.60;1.30;;;7.70;98.20;;;;;;5050696;28;20454;-73
2023/02/01 11:01:09;;;;;;;1.60;1.30;;;7.70;98.20;;;;;;5042070;28;20525;-73
2023/02/01 11:03:40;;;;;;;1.60;1.30;;;7.70;98.20;;;;;;5042983;28;20461;-73
2023/02/01 11:06:18;;;;;;;1.60;1.10;;;7.70;98.20;;;;;;5048257;28;20570;-73
2023/02/01 11:08:48;;;;;;;2.07;1.87;;;7.70;98.20;;;;;;5055949;28;20544;-73
2023/02/01 11:11:17;;;;;;;1.60;1.20;;;7.60;98.20;;;;;;5045032;28;21035;-73
2023/02/01 11:13:45;;;;;;;1.70;1.30;;;7.60;98.20;;;;;;5039940;28;20461;-73
2023/02/01 11:16:16;;;;;;;1.60;1.20;;;7.70;98.20;;;;;;5050613;28;20477;-73
2023/02/01 11:18:44;;;;;;;1.60;1.30;;;7.70;98.20;;;;;;5054729;28;20458;-73
2023/02/01 11:21:12;;;;;;;1.60;1.30;;;7.70;98.20;;;;;;5041094;28;20570;-73
2023/02/01 11:23:45;;;;;;;1.63;1.30;;;7.70;98.20;;;;;;5036511;28;20458;-73
2023/02/01 11:26:15;;;;;;;1.60;1.20;;;7.70;98.20;;;;;;5045545;28;20486;-73
2023/02/01 11:28:51;;;;;;;1.60;1.20;;;7.80;98.20;;;;;;5059515;28;20471;-71
2023/02/01 11:31:21;;;;;;;1.70;1.20;;;7.90;98.20;;;;;;5036036;28;21024;-72
2023/02/01 11:33:55;;;;;;;1.80;1.50;;;8.00;98.20;;;;;;5034785;28;20252;-72
2023/02/01 11:36:26;;;;;;;4.40;4.10;;;8.10;98.20;;;;;;5040800;28;21014;-72
2023/02/01 11:39:07;;;;;;;1.60;1.20;;;8.20;98.20;;;;;;5056848;28;20472;-72
2023/02/01 11:41:35;;;;;;;1.60;1.20;;;8.10;98.20;;;;;;5041769;28;20497;-71
2023/02/01 11:44:21;;;;;;;1.60;1.20;;;8.00;98.20;;;;;;5054413;28;20461;-71
2023/02/01 11:46:49;;;;;;;1.80;1.50;;;8.00;98.20;;;;;;5039882;28;20952;-73
2023/02/01 11:49:23;;;;;;;2.63;2.43;;;8.00;98.20;;;;;;5051119;28;20454;-72
2023/02/01 11:52:04;;;;;;;3.93;3.63;;;8.10;98.20;;;;;;5048974;28;20509;-73
2023/02/01 11:54:46;;;;;;;3.30;3.00;;;8.10;98.20;;;;;;5053716;28;20487;-73
2023/02/01 11:57:26;;;;;;;1.63;1.30;;;8.00;98.20;;;;;;5044461;28;20999;-73
2023/02/01 12:00:17;;;;;;;1.60;1.20;;;8.00;98.20;;;;;;5054416;28;20457;-74
2023/02/01 12:03:14;;;;;;;1.60;1.20;;;7.90;98.20;;;;;;5047886;28;20529;-73
2023/02/01 12:05:54;;;;;;;1.60;1.17;;;7.90;98.20;;;;;;5062181;28;20480;-74
2023/02/01 12:08:47;;;;;;;1.60;1.30;;;7.90;98.20;;;;;;5032176;28;20582;-74
2023/02/01 12:11:35;;;;;;;1.60;1.30;;;7.90;98.20;;;;;;5047212;28;20596;-73
2023/02/01 12:14:17;;;;;;;1.60;1.20;;;7.90;98.20;;;;;;5058754;28;20476;-73
2023/02/01 12:16:55;;;;;;;1.70;1.30;;;8.00;98.20;;;;;;5045846;28;20987;-72
2023/02/01 12:19:40;;;;;;;1.60;1.20;;;8.00;98.20;;;;;;5060519;28;20457;-73
2023/02/01 12:22:22;;;;;;;1.60;1.30;;;8.10;98.20;;;;;;5052857;28;20474;-73
2023/02/01 12:25:12;;;;;;;1.63;1.30;;;8.10;98.20;;;;;;5061151;28;20954;-74
2023/02/01 12:28:09;;;;;;;1.60;1.20;;;8.20;98.20;;;;;;5046976;28;21275;-73
2023/02/01 12:30:55;;;;;;;1.60;1.20;;;8.20;98.20;;;;;;5059135;28;20465;-73
2023/02/01 12:33:33;;;;;;;1.60;1.20;;;8.20;98.20;;;;;;5037656;28;20474;-73
2023/02/01 12:36:15;;;;;;;2.03;1.83;;;8.20;98.20;;;;;;5045879;28;20536;-73
2023/02/01 12:39:00;;;;;;;1.60;1.20;;;8.20;98.20;;;;;;5056497;28;20454;-73
2023/02/01 12:41:46;;;;;;;1.60;1.20;;;8.10;98.20;;;;;;5044419;28;20478;-75
2023/02/01 12:44:23;;;;;;;1.60;1.20;;;8.10;98.20;;;;;;5051365;28;20470;-73
2023/02/01 12:46:54;;;;;;;1.80;1.50;;;8.10;98.20;;;;;;5047399;28;21033;-73
2023/02/01 12:49:28;;;;;;;1.60;1.20;;;8.00;98.20;;;;;;5061981;28;20457;-74
2023/02/01 12:52:02;;;;;;;1.60;1.23;;;8.00;98.20;;;;;;5038158;28;20490;-73
2023/02/01 12:54:36;;;;;;;1.60;1.23;;;8.00;98.20;;;;;;5049656;28;20844;-72
2023/02/01 13:00:06;;;;;;;1.60;1.23;;;8.00;98.20;;;;;;5057539;28;20496;-74
2023/02/01 13:02:41;;;;;;;1.60;1.20;;;8.00;98.20;;;;;;5051175;28;20526;-74
2023/02/01 13:05:17;;;;;;;1.67;1.27;;;8.00;98.20;;;;;;5057428;28;21439;-73
2023/02/01 13:07:51;;;;;;;1.60;1.10;;;8.00;98.20;;;;;;5047012;28;20477;-74
2023/02/01 13:10:24;;;;;;;1.70;1.37;;;8.00;98.20;;;;;;5055265;28;20469;-74
2023/02/01 13:13:00;;;;;;;1.70;1.40;;;8.00;98.20;;;;;;5027383;28;20479;-74
2023/02/01 13:15:30;;;;;;;1.60;1.20;;;8.10;98.20;;;;;;5059793;28;20469;-74
2023/02/01 13:18:03;;;;;;;1.60;1.20;;;8.10;98.20;;;;;;5048833;28;20477;-73
2023/02/01 13:20:33;;;;;;;1.60;1.30;;;8.10;98.20;;;;;;5052648;28;20668;-74
2023/02/01 13:23:06;;;;;;;1.70;1.40;;;8.10;98.20;;;;;;5037714;28;20490;-73
2023/02/01 13:25:40;;;;;;;1.63;1.30;;;8.10;98.20;;;;;;5058015;28;20481;-73
2023/02/01 13:28:13;;;;;;;1.60;1.33;;;8.00;98.20;;;;;;5040121;28;20855;-74
2023/02/01 13:31:05;;;;;;;1.60;1.30;;;8.00;98.20;;;;;;5055106;28;20459;-73
2023/02/01 13:33:54;;;;;;;1.60;1.20;;;8.00;98.20;;;;;;5031670;28;20979;-75
2023/02/01 13:36:44;;;;;;;1.60;1.30;;;8.00;98.20;;;;;;5033592;28;20484;-73
2023/02/01 13:39:43;;;;;;;1.60;1.20;;;8.00;98.20;;;;;;5053499;28;20463;-75
2023/02/01 13:42:18;;;;;;;1.60;1.20;;;7.90;98.20;;;;;;5045170;28;20925;-74
2023/02/01 13:44:49;;;;;;;1.60;1.37;;;7.90;98.20;;;;;;5056538;28;20942;-76
2023/02/01 13:47:27;;;;;;;1.60;1.20;;;7.90;98.20;;;;;;5045945;28;20469;-74
2023/02/01 13:49:58;;;;;;;1.60;1.20;;;7.90;98.20;;;;;;5051012;28;20863;-75
2023/02/01 13:52:37;;;;;;;1.60;1.30;;;7.90;98.20;;;;;;5049178;28;20508;-73